Main page


Airports :

Birmingham, England

Birmingham Airport

latitude: 52-27N, longitude: 001-44W, elevation: 99 m

Current weather observation

The report was made 36 minutes ago, at 06:20 UTC
Wind 3 kt from the Southwest
Temperature 0°C
Humidity 93%
Pressure 1032 hPa
Visibility 10 km or more
no clouds below 1500 m and no cumulonimbus

METAR: EGBB 210620Z 23003KT CAVOK 00/M01 Q1032

Time: 06:56 (06:56 UTC)


The report was made 1 hour and 57 minutes ago, at 04:59 UTC
Forecast valid from 21 at 06 UTC to 22 at 06 UTC
Wind 9 kt from the West
Visibility 10 km or more
Scattered clouds at a height of 3000 ft
Probability 30% :
from 21 at 06 UTC to 21 at 08 UTC
Visibility: 4000 m
Probability 30% :
from 21 at 17 UTC to 21 at 24 UTC
Visibility: 7000 m
Broken clouds at a height of 1400 ft
light rain

TAF: EGBB 210459Z 2106/2206 28009KT 9999 SCT030 PROB30 TEMPO 2106/2108 4000 BR PROB30 TEMPO 2117/2124 7000 -RA BKN014

Weather observations and forecasts of more than 4000 airports (METAR and TAF reports).

The available stations are represented by yellow and red dots on the map.

Hover mouse over dot to see the name of the station.

Then click to see weather observations and forecasts.

To change the map : click on the green buttons with a black cross to zoom in, on the green button with a dash to zoom out, or on the green arrows for adjacent maps.